Terminal Aerodrome Forecast
Issued by NWS Sterling, VA

Home | Current Version | Previous Version | Text Only | Print | Product List | Glossary On
Versions: 1 2 3 4 5 6 7 8 9 10 11 12 13 14 15 16 17 18 19
000
FTUS41 KLWX 232107 AAA
TAFMRB
TAF AMD
KMRB 232107Z 2321/2418 11007KT P6SM OVC030
     FM240200 VRB03KT 5SM BR OVC015
     FM241200 00000KT P6SM BKN025
     FM241500 13005KT P6SM BKN035=

USA.gov is the U.S. government's official web portal to all federal, state and local government web resources and services.